createdAt,value
2018-10-19T00:01:17.060Z,125.58
2018-10-19T00:03:45.660Z,114.00
2018-10-19T00:06:14.238Z,126.72
2018-10-19T00:08:42.791Z,125.10
2018-10-19T00:11:11.431Z,122.30
2018-10-19T00:13:39.999Z,136.25
2018-10-19T00:16:08.565Z,124.82
2018-10-19T00:18:37.138Z,125.72
2018-10-19T00:21:06.083Z,126.62
2018-10-19T00:23:34.661Z,129.97
2018-10-19T00:26:03.226Z,128.90
2018-10-19T00:28:31.743Z,118.65
2018-10-19T00:31:00.320Z,132.15
2018-10-19T00:33:28.873Z,131.90
2018-10-19T00:35:57.445Z,118.75
2018-10-19T00:38:26.003Z,124.35
2018-10-19T00:40:54.569Z,114.10
2018-10-19T00:43:23.144Z,137.68
2018-10-19T00:45:51.704Z,104.70
2018-10-19T00:48:20.840Z,120.67
2018-10-19T00:50:49.417Z,116.95
2018-10-19T00:53:17.975Z,115.15
2018-10-19T00:55:46.565Z,123.30
2018-10-19T00:58:15.136Z,128.70
2018-10-19T01:00:43.679Z,112.72
2018-10-19T01:03:12.238Z,107.45
2018-10-19T01:05:41.343Z,127.32
2018-10-19T01:08:10.671Z,134.70
2018-10-19T01:10:39.215Z,129.97
2018-10-19T01:13:07.795Z,117.47
2018-10-19T01:15:36.326Z,127.82
2018-10-19T01:18:04.955Z,104.92
2018-10-19T01:20:33.523Z,124.35
2018-10-19T01:23:02.093Z,108.42
2018-10-19T01:25:30.657Z,114.65
2018-10-19T01:27:59.224Z,126.47
2018-10-19T01:30:27.803Z,122.02
2018-10-19T01:32:56.355Z,105.17
2018-10-19T01:35:24.941Z,118.47
2018-10-19T01:37:53.499Z,119.00
2018-10-19T01:40:22.057Z,133.55
2018-10-19T01:42:50.592Z,123.70
2018-10-19T01:45:19.164Z,121.62
2018-10-19T01:47:47.721Z,131.20
2018-10-19T01:50:16.303Z,114.37
2018-10-19T01:52:44.916Z,115.52
2018-10-19T01:55:13.463Z,126.05
2018-10-19T01:57:42.001Z,120.70
2018-10-19T02:00:10.539Z,137.45
2018-10-19T02:02:39.119Z,131.93
2018-10-19T02:05:07.827Z,136.07
2018-10-19T02:07:36.382Z,131.80
2018-10-19T02:10:05.839Z,127.15
2018-10-19T02:12:34.399Z,134.63
2018-10-19T02:15:03.063Z,135.05
2018-10-19T02:17:31.609Z,125.18
2018-10-19T02:20:00.171Z,128.30
2018-10-19T02:22:28.710Z,134.52
2018-10-19T02:24:57.263Z,112.55
2018-10-19T02:27:25.801Z,115.00
2018-10-19T02:29:54.388Z,124.62
2018-10-19T02:32:22.940Z,121.72
2018-10-19T02:34:51.509Z,127.50
2018-10-19T02:37:20.071Z,130.43
2018-10-19T02:39:48.701Z,133.78
2018-10-19T02:42:17.234Z,127.53
2018-10-19T02:44:45.804Z,132.45
2018-10-19T02:47:14.464Z,124.38
2018-10-19T02:49:42.973Z,142.53
2018-10-19T02:52:11.538Z,114.03
2018-10-19T02:54:40.132Z,111.62
2018-10-19T02:57:08.859Z,124.40
2018-10-19T02:59:37.410Z,116.53
2018-10-19T03:02:07.514Z,121.35
2018-10-19T03:04:36.117Z,128.55
2018-10-19T03:07:05.111Z,132.20
2018-10-19T03:09:33.666Z,124.97
2018-10-19T03:12:02.223Z,115.57
2018-10-19T03:14:30.761Z,148.60
2018-10-19T03:16:59.331Z,115.97
2018-10-19T03:19:27.931Z,132.60
2018-10-19T03:21:56.488Z,114.97
2018-10-19T03:24:25.025Z,125.82
2018-10-19T03:26:53.610Z,126.82
2018-10-19T03:29:22.264Z,118.37
2018-10-19T03:31:50.746Z,123.75
2018-10-19T03:34:19.296Z,127.45
2018-10-19T03:36:47.859Z,141.80
2018-10-19T03:39:16.484Z,120.95
2018-10-19T03:41:45.029Z,132.65
2018-10-19T03:44:13.583Z,133.87
2018-10-19T03:46:42.186Z,139.40
2018-10-19T03:49:10.739Z,131.67
2018-10-19T03:51:39.315Z,136.88
2018-10-19T03:54:07.919Z,136.18
2018-10-19T03:56:36.483Z,121.33
2018-10-19T03:59:05.596Z,140.43
2018-10-19T04:01:34.229Z,132.45
2018-10-19T04:04:02.764Z,123.60
2018-10-19T04:06:31.346Z,109.05
2018-10-19T04:08:59.966Z,121.02
2018-10-19T04:11:28.497Z,131.75
2018-10-19T04:13:57.034Z,137.03
2018-10-19T04:16:25.595Z,136.37
2018-10-19T04:18:54.146Z,128.45
2018-10-19T04:21:22.705Z,122.85
2018-10-19T04:23:51.251Z,126.12
2018-10-19T04:26:19.788Z,123.13
2018-10-19T04:28:48.361Z,128.47
2018-10-19T04:31:16.952Z,118.55
2018-10-19T04:33:45.490Z,127.15
2018-10-19T04:36:14.049Z,123.22
2018-10-19T04:38:42.609Z,126.78
2018-10-19T04:41:11.242Z,117.93
2018-10-19T04:43:39.744Z,129.53
2018-10-19T04:46:08.370Z,114.00
2018-10-19T04:48:36.941Z,122.90
2018-10-19T04:51:05.543Z,112.55
2018-10-19T04:53:34.135Z,114.55
2018-10-19T04:56:02.703Z,102.97
2018-10-19T04:58:31.286Z,99.32
2018-10-19T05:00:59.854Z,100.95
2018-10-19T05:03:28.410Z,90.70
2018-10-19T05:05:57.030Z,94.07
2018-10-19T05:08:25.555Z,110.37
2018-10-19T05:10:54.129Z,105.80
2018-10-19T05:13:22.673Z,88.20
2018-10-19T05:15:51.233Z,88.50
2018-10-19T05:18:19.772Z,89.83
2018-10-19T05:20:48.322Z,94.70
2018-10-19T05:23:16.928Z,99.92
2018-10-19T05:25:45.446Z,92.47
2018-10-19T05:28:14.021Z,104.50
2018-10-19T05:30:42.568Z,104.45
2018-10-19T05:33:11.130Z,89.42
2018-10-19T05:35:39.685Z,90.60
2018-10-19T05:38:08.377Z,70.03
2018-10-19T05:40:36.895Z,32.95
2018-10-19T05:43:05.773Z,23.10
2018-10-19T05:45:34.319Z,27.90
2018-10-19T05:48:02.959Z,15.65
2018-10-19T05:50:31.513Z,14.95
2018-10-19T05:53:00.098Z,21.02
2018-10-19T05:55:28.608Z,48.68
2018-10-19T05:57:57.159Z,14.78
2018-10-19T06:00:25.704Z,16.93
2018-10-19T06:02:54.264Z,17.60
2018-10-19T06:05:22.861Z,18.73
2018-10-19T06:07:51.413Z,16.25
2018-10-19T06:10:19.976Z,17.90
2018-10-19T06:12:48.530Z,19.52
2018-10-19T06:15:17.063Z,18.62
2018-10-19T06:17:45.636Z,21.10
2018-10-19T06:20:14.265Z,18.57
2018-10-19T06:22:42.785Z,20.05
2018-10-19T06:25:11.346Z,20.45
2018-10-19T06:27:39.934Z,17.37
2018-10-19T06:30:08.770Z,18.48
2018-10-19T06:32:37.682Z,19.32
2018-10-19T06:35:06.278Z,20.32
2018-10-19T06:37:34.873Z,23.92
2018-10-19T06:40:03.459Z,20.52
2018-10-19T06:42:32.002Z,20.72
2018-10-19T06:45:00.571Z,20.48
2018-10-19T06:47:29.202Z,27.52
2018-10-19T06:49:57.798Z,24.43
2018-10-19T06:52:26.317Z,21.97
2018-10-19T06:54:54.888Z,22.42
2018-10-19T06:57:23.448Z,21.93
2018-10-19T06:59:52.026Z,19.73
2018-10-19T07:02:20.573Z,20.23
2018-10-19T07:04:49.145Z,23.92
2018-10-19T07:07:17.730Z,27.45
2018-10-19T07:09:46.276Z,23.50
2018-10-19T07:12:14.895Z,27.07
2018-10-19T07:14:43.390Z,25.60
2018-10-19T07:17:11.961Z,20.65
2018-10-19T07:19:40.585Z,21.68
2018-10-19T07:22:09.130Z,19.42
2018-10-19T07:24:37.686Z,24.10
2018-10-19T07:27:06.238Z,26.27
2018-10-19T07:29:34.881Z,22.42
2018-10-19T07:32:03.625Z,21.45
2018-10-19T07:34:32.409Z,17.90
2018-10-19T07:37:01.024Z,15.83
2018-10-19T07:39:30.667Z,20.12
2018-10-19T07:41:59.243Z,17.52
2018-10-19T07:44:27.887Z,19.65
2018-10-19T07:46:56.528Z,18.30
2018-10-19T07:49:25.190Z,17.10
2018-10-19T07:51:53.810Z,12.00
2018-10-19T07:54:22.393Z,13.25
2018-10-19T07:56:51.954Z,11.97
2018-10-19T07:59:20.559Z,14.87
2018-10-19T08:01:49.155Z,10.60
2018-10-19T08:04:17.699Z,11.63
2018-10-19T08:06:46.240Z,13.13
2018-10-19T08:09:14.840Z,12.68
2018-10-19T08:11:43.403Z,16.73
2018-10-19T08:14:12.045Z,13.30
2018-10-19T08:16:40.529Z,15.75
2018-10-19T08:19:09.099Z,11.88
2018-10-19T08:21:37.645Z,14.53
2018-10-19T08:24:06.217Z,13.85
2018-10-19T08:26:34.745Z,14.03
2018-10-19T08:29:03.315Z,12.40
2018-10-19T08:31:31.886Z,16.52
2018-10-19T08:34:00.431Z,14.75
2018-10-19T08:36:28.975Z,21.00
2018-10-19T08:38:57.600Z,15.28
2018-10-19T08:41:26.153Z,15.85
2018-10-19T08:43:54.707Z,12.45
2018-10-19T08:46:28.519Z,15.20
2018-10-19T08:48:57.164Z,12.75
2018-10-19T08:51:25.671Z,14.73
2018-10-19T08:53:54.245Z,16.95
2018-10-19T08:56:22.898Z,14.60
2018-10-19T08:58:51.487Z,16.42
2018-10-19T09:01:20.037Z,23.02
2018-10-19T09:03:48.565Z,17.55
2018-10-19T09:06:17.145Z,19.87
2018-10-19T09:08:46.551Z,22.55
2018-10-19T09:11:15.266Z,24.12
2018-10-19T09:13:43.771Z,24.12
2018-10-19T09:16:12.295Z,31.10
2018-10-19T09:18:40.885Z,32.83
2018-10-19T09:21:09.414Z,29.87
2018-10-19T09:23:37.978Z,30.85
2018-10-19T09:26:06.545Z,32.98
2018-10-19T09:28:35.123Z,21.82
2018-10-19T09:31:03.677Z,31.75
2018-10-19T09:33:32.231Z,31.68
2018-10-19T09:36:00.943Z,37.05
2018-10-19T09:38:29.414Z,35.75
2018-10-19T09:40:58.101Z,35.08
2018-10-19T09:43:26.636Z,35.03
2018-10-19T09:45:55.251Z,36.15
2018-10-19T09:48:23.785Z,43.68
2018-10-19T09:50:52.354Z,47.58
2018-10-19T09:53:20.891Z,40.90
2018-10-19T09:55:49.489Z,43.68
2018-10-19T09:58:18.059Z,35.25
2018-10-19T10:00:51.940Z,44.45
2018-10-19T10:03:20.476Z,42.17
2018-10-19T10:05:48.999Z,43.65
2018-10-19T10:08:17.556Z,45.70
2018-10-19T10:10:46.158Z,59.83
2018-10-19T10:13:14.845Z,55.17
2018-10-19T10:15:43.334Z,44.08
2018-10-19T10:18:11.885Z,49.58
2018-10-19T10:20:40.479Z,55.98
2018-10-19T10:23:09.048Z,48.40
2018-10-19T10:25:37.626Z,52.93
2018-10-19T10:28:06.249Z,50.80
2018-10-19T10:30:34.809Z,57.17
2018-10-19T10:33:03.447Z,61.68
2018-10-19T10:35:32.039Z,53.30
2018-10-19T10:38:00.576Z,52.00
2018-10-19T10:40:29.132Z,54.95
2018-10-19T10:42:57.726Z,64.47
2018-10-19T10:45:26.253Z,69.97
2018-10-19T10:47:54.792Z,69.20
2018-10-19T10:50:23.392Z,73.40
2018-10-19T10:52:51.968Z,65.50
2018-10-19T10:55:20.495Z,79.80
2018-10-19T10:57:49.041Z,76.17
2018-10-19T11:00:17.640Z,77.30
2018-10-19T11:02:46.185Z,79.95
2018-10-19T11:05:14.753Z,88.12
2018-10-19T11:07:43.417Z,82.25
2018-10-19T11:10:11.952Z,82.17
2018-10-19T11:12:40.617Z,79.40
2018-10-19T11:15:10.252Z,75.37
2018-10-19T11:17:38.819Z,78.17
2018-10-19T11:20:07.439Z,86.97
2018-10-19T11:22:35.997Z,79.75
2018-10-19T11:25:04.699Z,85.90
2018-10-19T11:27:33.268Z,92.30
2018-10-19T11:30:01.856Z,92.65
2018-10-19T11:32:30.527Z,106.80
2018-10-19T11:34:59.077Z,95.80
2018-10-19T11:37:27.700Z,102.20
2018-10-19T11:40:07.545Z,93.55
2018-10-19T11:42:36.077Z,81.53
2018-10-19T11:45:04.705Z,94.28
2018-10-19T11:47:33.254Z,94.90
2018-10-19T11:50:01.806Z,91.60
2018-10-19T11:52:30.360Z,94.28
2018-10-19T11:54:58.924Z,99.17
2018-10-19T11:57:27.480Z,77.17
2018-10-19T11:59:56.045Z,87.95
2018-10-19T12:02:24.704Z,87.78
2018-10-19T12:04:53.275Z,73.52
2018-10-19T12:07:21.840Z,71.30
2018-10-19T12:09:50.393Z,74.07
2018-10-19T12:12:18.957Z,74.62
2018-10-19T12:14:47.541Z,77.82
2018-10-19T12:17:16.080Z,77.72
2018-10-19T12:19:44.620Z,72.62
2018-10-19T12:22:13.185Z,76.33
2018-10-19T12:24:41.718Z,72.65
2018-10-19T12:27:10.369Z,70.90
2018-10-19T12:29:38.863Z,61.45
2018-10-19T12:32:08.043Z,70.22
2018-10-19T12:34:36.937Z,64.10
2018-10-19T12:37:06.073Z,64.55
2018-10-19T12:39:34.568Z,75.00
2018-10-19T12:42:03.103Z,67.03
2018-10-19T12:44:31.657Z,64.35
2018-10-19T12:47:11.336Z,61.25
2018-10-19T12:49:39.983Z,65.28
2018-10-19T12:52:08.533Z,69.75
2018-10-19T12:54:37.111Z,64.90
2018-10-19T12:57:06.616Z,57.10
2018-10-19T12:59:35.198Z,56.45
2018-10-19T13:02:03.962Z,64.00
2018-10-19T13:04:32.542Z,68.07
2018-10-19T13:07:01.148Z,70.75
2018-10-19T13:09:29.672Z,70.40
2018-10-19T13:11:58.237Z,56.37
2018-10-19T13:14:26.781Z,54.38
2018-10-19T13:16:55.311Z,59.58
2018-10-19T13:19:23.840Z,78.97
2018-10-19T13:21:52.414Z,69.50
2018-10-19T13:24:21.011Z,49.67
2018-10-19T13:26:49.553Z,59.03
2018-10-19T13:29:18.091Z,63.30
2018-10-19T13:31:46.664Z,54.67
2018-10-19T13:34:15.244Z,53.65
2018-10-19T13:36:43.885Z,56.75
2018-10-19T13:39:13.651Z,59.77
2018-10-19T13:41:42.604Z,59.48
2018-10-19T13:44:11.424Z,71.75
2018-10-19T13:46:39.981Z,72.62
2018-10-19T13:49:08.520Z,64.55
2018-10-19T13:51:37.213Z,65.55
2018-10-19T13:54:05.923Z,64.05
2018-10-19T13:56:34.670Z,49.45
2018-10-19T13:59:03.338Z,58.30
2018-10-19T14:01:31.865Z,64.22
2018-10-19T14:04:00.471Z,56.23
2018-10-19T14:06:29.114Z,59.80
2018-10-19T14:08:57.760Z,64.55
2018-10-19T14:11:26.272Z,70.70
2018-10-19T14:13:54.791Z,64.27
2018-10-19T14:16:23.335Z,61.35
2018-10-19T14:18:51.902Z,65.75
2018-10-19T14:21:20.443Z,58.55
2018-10-19T14:23:48.972Z,58.55
2018-10-19T14:26:17.541Z,53.70
2018-10-19T14:28:46.067Z,53.78
2018-10-19T14:31:14.597Z,59.00
2018-10-19T14:33:43.176Z,64.77
2018-10-19T14:36:11.709Z,52.38
2018-10-19T14:38:40.297Z,61.33
2018-10-19T14:41:08.943Z,59.38
2018-10-19T14:43:37.425Z,60.92
2018-10-19T14:46:06.062Z,59.67
2018-10-19T14:48:34.619Z,57.98
2018-10-19T14:51:03.236Z,55.52
2018-10-19T14:53:31.716Z,55.43
2018-10-19T14:56:00.253Z,66.07
2018-10-19T14:58:28.831Z,61.18
2018-10-19T15:00:57.435Z,64.72
2018-10-19T15:03:25.981Z,59.90
2018-10-19T15:05:54.528Z,60.92
2018-10-19T15:08:23.104Z,67.80
2018-10-19T15:10:51.856Z,62.73
2018-10-19T15:13:20.277Z,68.10
2018-10-19T15:15:48.847Z,75.70
2018-10-19T15:18:17.476Z,70.87
2018-10-19T15:20:45.992Z,78.57
2018-10-19T15:23:14.567Z,59.08
2018-10-19T15:25:43.164Z,62.05
2018-10-19T15:28:11.719Z,65.22
2018-10-19T15:30:40.371Z,62.90
2018-10-19T15:33:08.972Z,64.67
2018-10-19T15:35:37.491Z,65.40
2018-10-19T15:38:06.073Z,65.92
2018-10-19T15:40:34.731Z,57.55
2018-10-19T15:43:03.336Z,51.10
2018-10-19T15:45:31.933Z,56.77
2018-10-19T15:48:00.507Z,63.83
2018-10-19T15:50:29.069Z,57.73
2018-10-19T15:52:57.627Z,57.88
2018-10-19T15:55:26.195Z,64.37
2018-10-19T15:57:54.741Z,59.48
2018-10-19T16:00:23.428Z,74.42
2018-10-19T16:02:51.882Z,67.30
2018-10-19T16:05:20.470Z,68.00
2018-10-19T16:07:49.047Z,65.92
2018-10-19T16:10:17.685Z,59.25
2018-10-19T16:12:46.229Z,76.42
2018-10-19T16:15:14.880Z,79.17
2018-10-19T16:17:43.505Z,58.65
2018-10-19T16:20:12.036Z,74.90
2018-10-19T16:22:40.585Z,82.35
2018-10-19T16:25:09.373Z,78.52
2018-10-19T16:27:39.132Z,70.65
2018-10-19T16:30:09.044Z,66.62
2018-10-19T16:32:38.390Z,77.32
2018-10-19T16:35:07.325Z,82.80
2018-10-19T16:37:35.961Z,73.00
2018-10-19T16:40:04.788Z,65.92
2018-10-19T16:42:33.395Z,72.03
2018-10-19T16:45:02.045Z,83.75
2018-10-19T16:47:30.777Z,73.57
2018-10-19T16:49:59.311Z,79.62
2018-10-19T16:52:27.995Z,89.80
2018-10-19T16:54:56.439Z,94.00
2018-10-19T16:57:25.258Z,86.57
2018-10-19T16:59:55.007Z,79.27
2018-10-19T17:02:23.707Z,88.25
2018-10-19T17:04:52.415Z,78.85
2018-10-19T17:07:21.019Z,86.00
2018-10-19T17:09:49.639Z,101.45
2018-10-19T17:12:18.198Z,84.20
2018-10-19T17:14:46.811Z,85.28
2018-10-19T17:17:15.503Z,81.82
2018-10-19T17:19:44.151Z,91.15
2018-10-19T17:22:12.836Z,76.25
2018-10-19T17:24:41.459Z,84.50
2018-10-19T17:27:10.136Z,83.03
2018-10-19T17:36:25.604Z,94.20
2018-10-19T17:38:54.411Z,84.28
2018-10-19T17:41:22.968Z,73.02
2018-10-19T17:43:51.555Z,87.80
2018-10-19T17:46:20.184Z,69.00
2018-10-19T17:48:48.754Z,83.82
2018-10-19T17:51:17.842Z,117.42
2018-10-19T17:53:46.479Z,107.92
2018-10-19T17:56:15.142Z,109.35
2018-10-19T17:58:43.740Z,112.65
2018-10-19T18:01:12.327Z,114.40
2018-10-19T18:03:40.862Z,88.97
2018-10-19T18:06:09.592Z,102.02
2018-10-19T18:08:38.197Z,114.37
2018-10-19T18:11:06.980Z,99.05
2018-10-19T18:13:36.006Z,91.10
2018-10-19T18:16:04.751Z,103.67
2018-10-19T18:18:33.360Z,103.40
2018-10-19T18:21:01.981Z,106.15
2018-10-19T18:23:30.649Z,110.57
2018-10-19T18:25:59.593Z,86.10
2018-10-19T18:28:28.335Z,97.60
2018-10-19T18:30:57.446Z,84.40
2018-10-19T18:33:26.386Z,74.50
2018-10-19T18:35:54.988Z,104.50
2018-10-19T18:38:23.724Z,97.65
2018-10-19T18:40:53.417Z,85.65
2018-10-19T18:43:22.112Z,101.42
2018-10-19T18:52:37.214Z,120.02
2018-10-19T18:55:05.925Z,111.72
2018-10-19T18:57:34.577Z,120.57
2018-10-19T19:00:03.411Z,118.13
2018-10-19T19:02:32.131Z,97.30
2018-10-19T19:05:00.700Z,110.72
2018-10-19T19:07:29.547Z,101.72
2018-10-19T19:10:03.472Z,123.30
2018-10-19T19:12:32.106Z,95.50
2018-10-19T19:15:00.709Z,90.25
2018-10-19T19:17:29.361Z,87.72
2018-10-19T19:20:03.298Z,88.45
2018-10-19T19:22:31.823Z,97.12
2018-10-19T19:25:05.831Z,91.10
2018-10-19T19:27:34.369Z,92.15
2018-10-19T19:30:02.963Z,106.52
2018-10-19T19:32:31.689Z,75.08
2018-10-19T19:35:00.246Z,119.45
2018-10-19T19:37:28.761Z,110.32
2018-10-19T19:39:57.307Z,101.15
2018-10-19T19:42:31.117Z,102.85
2018-10-19T19:44:59.676Z,111.60
2018-10-19T19:47:33.569Z,132.32
2018-10-19T19:50:03.561Z,93.85
2018-10-19T19:52:32.224Z,98.00
2018-10-19T19:55:00.784Z,107.90
2018-10-19T19:57:29.328Z,101.00
2018-10-19T19:59:57.914Z,89.25
2018-10-19T20:02:26.458Z,111.65
2018-10-19T20:04:55.046Z,114.60
2018-10-19T20:07:23.701Z,88.42
2018-10-19T20:09:52.244Z,92.27
2018-10-19T20:12:20.925Z,90.90
2018-10-19T20:14:49.428Z,95.25
2018-10-19T20:17:17.973Z,87.37
2018-10-19T20:19:46.537Z,104.27
2018-10-19T20:22:15.063Z,126.45
2018-10-19T20:24:43.700Z,108.83
2018-10-19T20:27:12.311Z,106.72
2018-10-19T20:29:40.837Z,113.47
2018-10-19T20:32:09.509Z,104.00
2018-10-19T20:34:38.019Z,81.25
2018-10-19T20:37:06.573Z,98.05
2018-10-19T20:39:35.139Z,99.80
2018-10-19T20:42:03.675Z,98.45
2018-10-19T20:44:32.277Z,78.95
2018-10-19T20:47:00.870Z,98.80
2018-10-19T20:49:29.382Z,82.78
2018-10-19T20:51:57.901Z,84.20
2018-10-19T20:54:26.557Z,100.38
2018-10-19T20:56:55.105Z,97.20
2018-10-19T20:59:23.667Z,110.08
2018-10-19T21:01:52.226Z,98.45
2018-10-19T21:04:20.827Z,92.50
2018-10-19T21:06:49.361Z,92.22
2018-10-19T21:09:17.926Z,84.45
2018-10-19T21:11:46.448Z,97.05
2018-10-19T21:14:15.172Z,102.05
2018-10-19T21:16:43.651Z,87.53
2018-10-19T21:19:12.361Z,73.05
2018-10-19T21:21:40.807Z,82.20
2018-10-19T21:24:09.376Z,80.03
2018-10-19T21:26:38.003Z,78.92
2018-10-19T21:29:06.559Z,85.15
2018-10-19T21:31:35.083Z,87.97
2018-10-19T21:34:03.627Z,71.67
2018-10-19T21:36:32.166Z,90.25
2018-10-19T21:39:00.829Z,91.85
2018-10-19T21:41:29.368Z,86.30
2018-10-19T21:43:57.915Z,96.85
2018-10-19T21:46:26.472Z,89.62
2018-10-19T21:48:55.006Z,86.25
2018-10-19T21:51:23.817Z,84.42
2018-10-19T21:53:52.489Z,84.95
2018-10-19T21:56:21.162Z,77.78
2018-10-19T21:58:49.704Z,73.95
2018-10-19T22:01:18.351Z,69.55
2018-10-19T22:03:46.898Z,86.42
2018-10-19T22:06:15.433Z,73.00
2018-10-19T22:08:43.959Z,78.02
2018-10-19T22:11:12.567Z,65.32
2018-10-19T22:13:41.110Z,79.25
2018-10-19T22:16:09.610Z,84.05
2018-10-19T22:18:38.142Z,69.30
2018-10-19T22:21:06.685Z,54.88
2018-10-19T22:23:35.287Z,75.87
2018-10-19T22:26:03.843Z,63.40
2018-10-19T22:28:32.411Z,59.85
2018-10-19T22:31:01.001Z,59.67
2018-10-19T22:33:29.563Z,60.63
2018-10-19T22:35:58.099Z,57.95
2018-10-19T22:38:26.649Z,57.80
2018-10-19T22:40:55.196Z,51.83
2018-10-19T22:43:23.729Z,50.10
2018-10-19T22:45:52.273Z,54.75
2018-10-19T22:48:20.805Z,60.50
2018-10-19T22:50:49.405Z,73.42
2018-10-19T22:53:17.969Z,64.27
2018-10-19T22:55:46.518Z,61.40
2018-10-19T22:58:15.049Z,74.67
2018-10-19T23:00:43.632Z,65.97
2018-10-19T23:03:12.181Z,54.67
2018-10-19T23:05:40.741Z,58.83
2018-10-19T23:08:09.298Z,53.73
2018-10-19T23:10:37.861Z,45.52
2018-10-19T23:13:06.557Z,44.15
2018-10-19T23:15:35.095Z,50.08
2018-10-19T23:18:03.903Z,58.98
2018-10-19T23:20:32.467Z,48.75
2018-10-19T23:23:01.009Z,50.50
2018-10-19T23:25:29.557Z,43.78
2018-10-19T23:27:58.108Z,57.78
2018-10-19T23:30:26.666Z,48.65
2018-10-19T23:32:55.208Z,46.58
2018-10-19T23:35:23.733Z,47.48
2018-10-19T23:37:52.257Z,60.95
2018-10-19T23:40:20.845Z,69.60
2018-10-19T23:42:49.363Z,66.40
2018-10-19T23:45:17.943Z,56.60
2018-10-19T23:47:46.472Z,57.15
2018-10-19T23:50:15.023Z,49.55
2018-10-19T23:52:43.612Z,50.80
2018-10-19T23:55:12.168Z,61.55
2018-10-19T23:57:40.728Z,49.95
